sensor_id;sensor_type;location;lat;lon;timestamp;temperature;humidity
26707;DHT22;14319;49.422;10.934;2022-12-26T00:00:14;8.80;90.20
26707;DHT22;14319;49.422;10.934;2022-12-26T00:02:15;8.90;90.10
26707;DHT22;14319;49.422;10.934;2022-12-26T00:04:16;9.00;89.50
26707;DHT22;14319;49.422;10.934;2022-12-26T00:06:18;9.10;89.60
26707;DHT22;14319;49.422;10.934;2022-12-26T00:08:19;9.10;89.40
26707;DHT22;14319;49.422;10.934;2022-12-26T00:10:20;9.10;89.30
26707;DHT22;14319;49.422;10.934;2022-12-26T00:12:23;9.10;88.90
26707;DHT22;14319;49.422;10.934;2022-12-26T00:14:24;9.20;89.10
26707;DHT22;14319;49.422;10.934;2022-12-26T00:16:25;9.20;89.40
26707;DHT22;14319;49.422;10.934;2022-12-26T00:18:26;9.20;88.30
26707;DHT22;14319;49.422;10.934;2022-12-26T00:20:26;9.20;88.50
26707;DHT22;14319;49.422;10.934;2022-12-26T00:22:27;9.20;88.90
26707;DHT22;14319;49.422;10.934;2022-12-26T00:24:27;9.20;88.70
26707;DHT22;14319;49.422;10.934;2022-12-26T00:26:29;9.20;88.70
26707;DHT22;14319;49.422;10.934;2022-12-26T00:28:30;9.20;88.80
26707;DHT22;14319;49.422;10.934;2022-12-26T00:30:30;9.20;89.10
26707;DHT22;14319;49.422;10.934;2022-12-26T00:32:31;9.20;89.10
26707;DHT22;14319;49.422;10.934;2022-12-26T00:34:31;9.20;88.70
26707;DHT22;14319;49.422;10.934;2022-12-26T00:36:32;9.30;88.90
26707;DHT22;14319;49.422;10.934;2022-12-26T00:38:33;9.30;88.50
26707;DHT22;14319;49.422;10.934;2022-12-26T00:40:34;9.30;88.80
26707;DHT22;14319;49.422;10.934;2022-12-26T00:42:35;9.30;88.90
26707;DHT22;14319;49.422;10.934;2022-12-26T00:44:35;9.30;88.50
26707;DHT22;14319;49.422;10.934;2022-12-26T00:46:36;9.40;88.50
26707;DHT22;14319;49.422;10.934;2022-12-26T00:48:36;9.30;88.80
26707;DHT22;14319;49.422;10.934;2022-12-26T00:50:37;9.30;89.00
26707;DHT22;14319;49.422;10.934;2022-12-26T00:52:38;9.30;87.80
26707;DHT22;14319;49.422;10.934;2022-12-26T00:54:38;9.30;88.00
26707;DHT22;14319;49.422;10.934;2022-12-26T00:56:38;9.40;88.00
26707;DHT22;14319;49.422;10.934;2022-12-26T00:58:39;9.30;87.70
26707;DHT22;14319;49.422;10.934;2022-12-26T01:00:41;9.30;88.30
26707;DHT22;14319;49.422;10.934;2022-12-26T01:02:41;9.40;88.10
26707;DHT22;14319;49.422;10.934;2022-12-26T01:04:42;9.30;88.10
26707;DHT22;14319;49.422;10.934;2022-12-26T01:06:42;9.40;88.00
26707;DHT22;14319;49.422;10.934;2022-12-26T01:08:43;9.50;87.80
26707;DHT22;14319;49.422;10.934;2022-12-26T01:10:44;9.40;87.50
26707;DHT22;14319;49.422;10.934;2022-12-26T01:12:45;9.50;88.00
26707;DHT22;14319;49.422;10.934;2022-12-26T01:14:46;9.50;87.30
26707;DHT22;14319;49.422;10.934;2022-12-26T01:16:47;9.50;87.50
26707;DHT22;14319;49.422;10.934;2022-12-26T01:18:47;9.50;87.30
26707;DHT22;14319;49.422;10.934;2022-12-26T01:20:48;9.50;86.90
26707;DHT22;14319;49.422;10.934;2022-12-26T01:22:48;9.60;86.10
26707;DHT22;14319;49.422;10.934;2022-12-26T01:24:52;9.60;86.20
26707;DHT22;14319;49.422;10.934;2022-12-26T01:26:53;9.60;86.40
26707;DHT22;14319;49.422;10.934;2022-12-26T01:28:54;9.60;86.50
26707;DHT22;14319;49.422;10.934;2022-12-26T01:30:54;9.60;86.90
26707;DHT22;14319;49.422;10.934;2022-12-26T01:32:55;9.50;87.10
26707;DHT22;14319;49.422;10.934;2022-12-26T01:34:56;9.40;87.00
26707;DHT22;14319;49.422;10.934;2022-12-26T01:36:56;9.40;86.70
26707;DHT22;14319;49.422;10.934;2022-12-26T01:38:57;9.30;86.10
26707;DHT22;14319;49.422;10.934;2022-12-26T01:40:57;9.30;86.80
26707;DHT22;14319;49.422;10.934;2022-12-26T01:43:15;9.30;87.00
26707;DHT22;14319;49.422;10.934;2022-12-26T01:45:26;9.30;87.10
26707;DHT22;14319;49.422;10.934;2022-12-26T01:47:34;9.30;86.80
26707;DHT22;14319;49.422;10.934;2022-12-26T01:49:38;9.30;86.70
26707;DHT22;14319;49.422;10.934;2022-12-26T01:51:42;9.30;87.10
26707;DHT22;14319;49.422;10.934;2022-12-26T01:53:45;9.30;87.00
26707;DHT22;14319;49.422;10.934;2022-12-26T01:55:52;9.20;87.20
26707;DHT22;14319;49.422;10.934;2022-12-26T01:57:55;9.30;86.90
26707;DHT22;14319;49.422;10.934;2022-12-26T01:59:57;9.30;87.10
26707;DHT22;14319;49.422;10.934;2022-12-26T02:01:58;9.30;86.60
26707;DHT22;14319;49.422;10.934;2022-12-26T02:04:00;9.40;87.30
26707;DHT22;14319;49.422;10.934;2022-12-26T02:06:20;9.40;87.00
26707;DHT22;14319;49.422;10.934;2022-12-26T02:08:23;9.40;86.80
26707;DHT22;14319;49.422;10.934;2022-12-26T02:10:24;9.40;86.30
26707;DHT22;14319;49.422;10.934;2022-12-26T02:12:27;9.40;85.80
26707;DHT22;14319;49.422;10.934;2022-12-26T02:14:28;9.40;86.50
26707;DHT22;14319;49.422;10.934;2022-12-26T02:16:29;9.40;86.30
26707;DHT22;14319;49.422;10.934;2022-12-26T02:18:30;9.40;86.50
26707;DHT22;14319;49.422;10.934;2022-12-26T02:20:32;9.30;86.50
26707;DHT22;14319;49.422;10.934;2022-12-26T02:24:54;9.30;86.50
26707;DHT22;14319;49.422;10.934;2022-12-26T02:27:14;9.30;86.50
26707;DHT22;14319;49.422;10.934;2022-12-26T02:31:47;9.20;87.20
26707;DHT22;14319;49.422;10.934;2022-12-26T02:36:17;9.30;86.60
26707;DHT22;14319;49.422;10.934;2022-12-26T02:42:56;9.30;86.00
26707;DHT22;14319;49.422;10.934;2022-12-26T02:45:45;9.20;85.60
26707;DHT22;14319;49.422;10.934;2022-12-26T02:50:18;9.20;87.00
26707;DHT22;14319;49.422;10.934;2022-12-26T02:52:39;9.20;86.80
26707;DHT22;14319;49.422;10.934;2022-12-26T02:55:06;9.10;87.20
26707;DHT22;14319;49.422;10.934;2022-12-26T02:57:29;9.10;87.00
26707;DHT22;14319;49.422;10.934;2022-12-26T03:02:21;9.00;86.20
26707;DHT22;14319;49.422;10.934;2022-12-26T03:04:42;9.00;86.30
26707;DHT22;14319;49.422;10.934;2022-12-26T03:07:04;9.10;87.20
26707;DHT22;14319;49.422;10.934;2022-12-26T03:09:31;9.00;87.50
26707;DHT22;14319;49.422;10.934;2022-12-26T03:11:51;9.00;86.70
26707;DHT22;14319;49.422;10.934;2022-12-26T03:14:18;9.00;86.90
26707;DHT22;14319;49.422;10.934;2022-12-26T03:16:20;9.00;86.90
26707;DHT22;14319;49.422;10.934;2022-12-26T03:18:42;9.10;87.40
26707;DHT22;14319;49.422;10.934;2022-12-26T03:20:43;9.10;87.60
26707;DHT22;14319;49.422;10.934;2022-12-26T03:24:45;9.00;87.80
26707;DHT22;14319;49.422;10.934;2022-12-26T03:27:04;9.00;87.40
26707;DHT22;14319;49.422;10.934;2022-12-26T03:29:06;9.00;87.70
26707;DHT22;14319;49.422;10.934;2022-12-26T03:31:25;9.10;87.80
26707;DHT22;14319;49.422;10.934;2022-12-26T03:35:45;9.10;87.60
26707;DHT22;14319;49.422;10.934;2022-12-26T03:37:51;9.20;87.10
26707;DHT22;14319;49.422;10.934;2022-12-26T03:44:54;9.30;87.00
26707;DHT22;14319;49.422;10.934;2022-12-26T03:47:28;9.30;86.90
26707;DHT22;14319;49.422;10.934;2022-12-26T03:49:55;9.30;86.60
26707;DHT22;14319;49.422;10.934;2022-12-26T03:52:22;9.40;88.00
26707;DHT22;14319;49.422;10.934;2022-12-26T03:54:45;9.40;86.80
26707;DHT22;14319;49.422;10.934;2022-12-26T03:57:09;9.40;86.90
26707;DHT22;14319;49.422;10.934;2022-12-26T03:59:41;9.40;87.70
26707;DHT22;14319;49.422;10.934;2022-12-26T04:02:05;9.40;87.40
26707;DHT22;14319;49.422;10.934;2022-12-26T04:04:24;9.50;87.00
26707;DHT22;14319;49.422;10.934;2022-12-26T04:09:46;9.50;86.40
26707;DHT22;14319;49.422;10.934;2022-12-26T04:12:06;9.60;86.40
26707;DHT22;14319;49.422;10.934;2022-12-26T04:14:33;9.50;85.80
26707;DHT22;14319;49.422;10.934;2022-12-26T04:17:01;9.60;85.40
26707;DHT22;14319;49.422;10.934;2022-12-26T04:24:19;9.70;84.80
26707;DHT22;14319;49.422;10.934;2022-12-26T04:26:42;9.70;85.90
26707;DHT22;14319;49.422;10.934;2022-12-26T04:29:02;9.70;85.20
26707;DHT22;14319;49.422;10.934;2022-12-26T04:31:32;9.70;84.90
26707;DHT22;14319;49.422;10.934;2022-12-26T04:33:59;9.70;84.60
26707;DHT22;14319;49.422;10.934;2022-12-26T04:36:21;9.70;85.60
26707;DHT22;14319;49.422;10.934;2022-12-26T04:38:45;9.70;85.10
26707;DHT22;14319;49.422;10.934;2022-12-26T04:41:05;9.70;84.10
26707;DHT22;14319;49.422;10.934;2022-12-26T04:43:25;9.70;84.70
26707;DHT22;14319;49.422;10.934;2022-12-26T04:45:45;9.70;85.40
26707;DHT22;14319;49.422;10.934;2022-12-26T04:47:46;9.60;85.30
26707;DHT22;14319;49.422;10.934;2022-12-26T04:50:05;9.60;85.00
26707;DHT22;14319;49.422;10.934;2022-12-26T04:52:12;9.60;85.30
26707;DHT22;14319;49.422;10.934;2022-12-26T04:54:13;9.60;84.90
26707;DHT22;14319;49.422;10.934;2022-12-26T04:56:14;9.60;85.10
26707;DHT22;14319;49.422;10.934;2022-12-26T04:58:17;9.60;84.80
26707;DHT22;14319;49.422;10.934;2022-12-26T05:00:17;9.70;85.90
26707;DHT22;14319;49.422;10.934;2022-12-26T05:02:18;9.70;84.50
26707;DHT22;14319;49.422;10.934;2022-12-26T05:04:37;9.80;85.20
26707;DHT22;14319;49.422;10.934;2022-12-26T05:06:57;9.80;85.10
26707;DHT22;14319;49.422;10.934;2022-12-26T05:09:17;9.80;84.30
26707;DHT22;14319;49.422;10.934;2022-12-26T05:11:36;9.90;84.20
26707;DHT22;14319;49.422;10.934;2022-12-26T05:13:36;9.90;83.90
26707;DHT22;14319;49.422;10.934;2022-12-26T05:15:37;9.90;83.40
26707;DHT22;14319;49.422;10.934;2022-12-26T05:17:56;9.80;83.90
26707;DHT22;14319;49.422;10.934;2022-12-26T05:20:15;9.80;84.60
26707;DHT22;14319;49.422;10.934;2022-12-26T05:22:36;9.90;84.20
26707;DHT22;14319;49.422;10.934;2022-12-26T05:24:56;9.90;83.70
26707;DHT22;14319;49.422;10.934;2022-12-26T05:27:15;10.00;83.50
26707;DHT22;14319;49.422;10.934;2022-12-26T05:29:34;10.10;84.40
26707;DHT22;14319;49.422;10.934;2022-12-26T05:31:34;10.20;84.00
26707;DHT22;14319;49.422;10.934;2022-12-26T05:33:35;10.10;83.60
26707;DHT22;14319;49.422;10.934;2022-12-26T05:35:54;10.20;83.90
26707;DHT22;14319;49.422;10.934;2022-12-26T05:37:54;10.20;83.40
26707;DHT22;14319;49.422;10.934;2022-12-26T05:39:55;10.20;83.90
26707;DHT22;14319;49.422;10.934;2022-12-26T05:41:55;10.20;83.10
26707;DHT22;14319;49.422;10.934;2022-12-26T05:43:56;10.30;83.70
26707;DHT22;14319;49.422;10.934;2022-12-26T05:45:56;10.30;83.00
26707;DHT22;14319;49.422;10.934;2022-12-26T05:47:57;10.30;82.80
26707;DHT22;14319;49.422;10.934;2022-12-26T05:49:58;10.40;82.90
26707;DHT22;14319;49.422;10.934;2022-12-26T05:51:59;10.40;83.00
26707;DHT22;14319;49.422;10.934;2022-12-26T05:54:00;10.50;82.10
26707;DHT22;14319;49.422;10.934;2022-12-26T05:56:04;10.50;82.10
26707;DHT22;14319;49.422;10.934;2022-12-26T05:58:05;10.50;82.20
26707;DHT22;14319;49.422;10.934;2022-12-26T06:00:05;10.50;82.70
26707;DHT22;14319;49.422;10.934;2022-12-26T06:02:08;10.50;82.70
26707;DHT22;14319;49.422;10.934;2022-12-26T06:04:08;10.50;82.60
26707;DHT22;14319;49.422;10.934;2022-12-26T06:06:09;10.50;82.80
26707;DHT22;14319;49.422;10.934;2022-12-26T06:08:09;10.50;82.90
26707;DHT22;14319;49.422;10.934;2022-12-26T06:10:10;10.50;82.40
26707;DHT22;14319;49.422;10.934;2022-12-26T06:12:11;10.50;83.00
26707;DHT22;14319;49.422;10.934;2022-12-26T06:14:14;10.50;82.80
26707;DHT22;14319;49.422;10.934;2022-12-26T06:16:15;10.50;82.10
26707;DHT22;14319;49.422;10.934;2022-12-26T06:18:16;10.60;82.00
26707;DHT22;14319;49.422;10.934;2022-12-26T06:20:16;10.60;82.60
26707;DHT22;14319;49.422;10.934;2022-12-26T06:22:17;10.50;82.20
26707;DHT22;14319;49.422;10.934;2022-12-26T06:24:17;10.70;81.90
26707;DHT22;14319;49.422;10.934;2022-12-26T06:26:18;10.70;81.80
26707;DHT22;14319;49.422;10.934;2022-12-26T06:28:18;10.60;81.50
26707;DHT22;14319;49.422;10.934;2022-12-26T06:30:19;10.70;81.80
26707;DHT22;14319;49.422;10.934;2022-12-26T06:32:20;10.70;82.00
26707;DHT22;14319;49.422;10.934;2022-12-26T06:34:20;10.70;81.60
26707;DHT22;14319;49.422;10.934;2022-12-26T06:36:21;10.60;81.80
26707;DHT22;14319;49.422;10.934;2022-12-26T06:38:22;10.60;81.50
26707;DHT22;14319;49.422;10.934;2022-12-26T06:40:23;10.60;82.10
26707;DHT22;14319;49.422;10.934;2022-12-26T06:42:23;10.60;81.20
26707;DHT22;14319;49.422;10.934;2022-12-26T06:44:24;10.60;81.50
26707;DHT22;14319;49.422;10.934;2022-12-26T06:46:25;10.70;81.60
26707;DHT22;14319;49.422;10.934;2022-12-26T06:48:26;10.80;80.40
26707;DHT22;14319;49.422;10.934;2022-12-26T06:50:26;10.90;81.40
26707;DHT22;14319;49.422;10.934;2022-12-26T06:52:27;10.90;81.10
26707;DHT22;14319;49.422;10.934;2022-12-26T06:54:28;10.80;80.50
26707;DHT22;14319;49.422;10.934;2022-12-26T06:56:29;10.80;81.20
26707;DHT22;14319;49.422;10.934;2022-12-26T06:58:29;10.80;81.30
26707;DHT22;14319;49.422;10.934;2022-12-26T07:00:30;10.80;81.40
26707;DHT22;14319;49.422;10.934;2022-12-26T07:02:30;10.80;80.60
26707;DHT22;14319;49.422;10.934;2022-12-26T07:04:31;10.80;81.40
26707;DHT22;14319;49.422;10.934;2022-12-26T07:06:33;10.90;81.20
26707;DHT22;14319;49.422;10.934;2022-12-26T07:08:34;10.80;81.40
26707;DHT22;14319;49.422;10.934;2022-12-26T07:10:35;10.90;80.30
26707;DHT22;14319;49.422;10.934;2022-12-26T07:12:36;10.80;80.90
26707;DHT22;14319;49.422;10.934;2022-12-26T07:14:36;10.80;80.90
26707;DHT22;14319;49.422;10.934;2022-12-26T07:16:38;10.80;80.40
26707;DHT22;14319;49.422;10.934;2022-12-26T07:18:39;10.90;81.60
26707;DHT22;14319;49.422;10.934;2022-12-26T07:20:40;10.90;81.20
26707;DHT22;14319;49.422;10.934;2022-12-26T07:22:40;10.90;81.40
26707;DHT22;14319;49.422;10.934;2022-12-26T07:24:41;11.00;80.70
26707;DHT22;14319;49.422;10.934;2022-12-26T07:26:41;11.00;80.50
26707;DHT22;14319;49.422;10.934;2022-12-26T07:28:43;10.90;80.90
26707;DHT22;14319;49.422;10.934;2022-12-26T07:30:47;11.00;81.10
26707;DHT22;14319;49.422;10.934;2022-12-26T07:32:47;11.00;81.20
26707;DHT22;14319;49.422;10.934;2022-12-26T07:34:48;11.00;81.80
26707;DHT22;14319;49.422;10.934;2022-12-26T07:36:48;10.90;81.00
26707;DHT22;14319;49.422;10.934;2022-12-26T07:38:49;10.90;81.70
26707;DHT22;14319;49.422;10.934;2022-12-26T07:40:49;10.90;81.40
26707;DHT22;14319;49.422;10.934;2022-12-26T07:42:52;10.90;82.10
26707;DHT22;14319;49.422;10.934;2022-12-26T07:44:53;10.90;81.80
26707;DHT22;14319;49.422;10.934;2022-12-26T07:46:54;10.90;82.00
26707;DHT22;14319;49.422;10.934;2022-12-26T07:48:55;10.90;82.00
26707;DHT22;14319;49.422;10.934;2022-12-26T07:51:00;10.90;81.90
26707;DHT22;14319;49.422;10.934;2022-12-26T07:53:00;10.90;81.90
26707;DHT22;14319;49.422;10.934;2022-12-26T07:55:01;10.90;81.80
26707;DHT22;14319;49.422;10.934;2022-12-26T07:57:03;10.90;81.80
26707;DHT22;14319;49.422;10.934;2022-12-26T07:59:04;10.90;82.00
26707;DHT22;14319;49.422;10.934;2022-12-26T08:01:04;10.90;82.00
26707;DHT22;14319;49.422;10.934;2022-12-26T08:03:07;10.90;82.00
26707;DHT22;14319;49.422;10.934;2022-12-26T08:05:08;10.90;82.20
26707;DHT22;14319;49.422;10.934;2022-12-26T08:07:08;10.90;82.20
26707;DHT22;14319;49.422;10.934;2022-12-26T08:09:12;11.00;81.60
26707;DHT22;14319;49.422;10.934;2022-12-26T08:11:15;10.90;82.00
26707;DHT22;14319;49.422;10.934;2022-12-26T08:13:17;10.90;81.50
26707;DHT22;14319;49.422;10.934;2022-12-26T08:15:17;10.90;82.00
26707;DHT22;14319;49.422;10.934;2022-12-26T08:17:18;10.90;81.60
26707;DHT22;14319;49.422;10.934;2022-12-26T08:19:18;10.90;82.10
26707;DHT22;14319;49.422;10.934;2022-12-26T08:21:19;10.90;82.30
26707;DHT22;14319;49.422;10.934;2022-12-26T08:23:19;10.90;82.10
26707;DHT22;14319;49.422;10.934;2022-12-26T08:25:20;10.90;81.90
26707;DHT22;14319;49.422;10.934;2022-12-26T08:27:23;11.00;82.00
26707;DHT22;14319;49.422;10.934;2022-12-26T08:29:24;10.80;82.10
26707;DHT22;14319;49.422;10.934;2022-12-26T08:31:24;10.90;81.90
26707;DHT22;14319;49.422;10.934;2022-12-26T08:33:25;10.90;82.20
26707;DHT22;14319;49.422;10.934;2022-12-26T08:35:25;10.90;82.40
26707;DHT22;14319;49.422;10.934;2022-12-26T08:37:26;10.90;82.30
26707;DHT22;14319;49.422;10.934;2022-12-26T08:39:26;11.00;81.50
26707;DHT22;14319;49.422;10.934;2022-12-26T08:41:27;11.00;81.60
26707;DHT22;14319;49.422;10.934;2022-12-26T08:43:27;11.00;82.40
26707;DHT22;14319;49.422;10.934;2022-12-26T08:45:28;10.90;83.10
26707;DHT22;14319;49.422;10.934;2022-12-26T08:47:29;11.00;84.90
26707;DHT22;14319;49.422;10.934;2022-12-26T08:49:29;11.00;84.70
26707;DHT22;14319;49.422;10.934;2022-12-26T08:51:30;11.00;85.20
26707;DHT22;14319;49.422;10.934;2022-12-26T08:53:31;11.10;85.10
26707;DHT22;14319;49.422;10.934;2022-12-26T08:55:32;11.10;85.00
26707;DHT22;14319;49.422;10.934;2022-12-26T08:57:32;11.10;85.40
26707;DHT22;14319;49.422;10.934;2022-12-26T08:59:33;11.00;85.10
26707;DHT22;14319;49.422;10.934;2022-12-26T09:01:33;11.00;85.20
26707;DHT22;14319;49.422;10.934;2022-12-26T09:03:34;11.00;85.30
26707;DHT22;14319;49.422;10.934;2022-12-26T09:05:35;11.00;85.30
26707;DHT22;14319;49.422;10.934;2022-12-26T09:07:35;10.90;85.60
26707;DHT22;14319;49.422;10.934;2022-12-26T09:09:36;10.90;86.30
26707;DHT22;14319;49.422;10.934;2022-12-26T09:11:37;10.90;85.50
26707;DHT22;14319;49.422;10.934;2022-12-26T09:13:39;11.00;85.70
26707;DHT22;14319;49.422;10.934;2022-12-26T09:15:40;11.10;85.10
26707;DHT22;14319;49.422;10.934;2022-12-26T09:17:40;11.10;85.80
26707;DHT22;14319;49.422;10.934;2022-12-26T09:19:41;11.20;85.50
26707;DHT22;14319;49.422;10.934;2022-12-26T09:21:41;11.20;85.70
26707;DHT22;14319;49.422;10.934;2022-12-26T09:23:42;11.30;85.00
26707;DHT22;14319;49.422;10.934;2022-12-26T09:25:42;11.40;85.10
26707;DHT22;14319;49.422;10.934;2022-12-26T09:27:43;11.40;84.80
26707;DHT22;14319;49.422;10.934;2022-12-26T09:29:44;11.40;84.70
26707;DHT22;14319;49.422;10.934;2022-12-26T09:31:44;11.40;84.80
26707;DHT22;14319;49.422;10.934;2022-12-26T09:33:45;11.40;83.40
26707;DHT22;14319;49.422;10.934;2022-12-26T09:35:46;11.40;84.60
26707;DHT22;14319;49.422;10.934;2022-12-26T09:37:47;11.40;84.20
26707;DHT22;14319;49.422;10.934;2022-12-26T09:39:47;11.40;84.60
26707;DHT22;14319;49.422;10.934;2022-12-26T09:41:53;11.30;83.90
26707;DHT22;14319;49.422;10.934;2022-12-26T09:48:27;11.30;84.80
26707;DHT22;14319;49.422;10.934;2022-12-26T09:50:32;11.20;84.40
26707;DHT22;14319;49.422;10.934;2022-12-26T09:52:40;11.20;84.30
26707;DHT22;14319;49.422;10.934;2022-12-26T09:54:44;11.30;85.00
26707;DHT22;14319;49.422;10.934;2022-12-26T09:56:48;11.20;84.30
26707;DHT22;14319;49.422;10.934;2022-12-26T09:58:53;11.20;84.80
26707;DHT22;14319;49.422;10.934;2022-12-26T10:01:07;11.10;84.60
26707;DHT22;14319;49.422;10.934;2022-12-26T10:03:09;11.20;84.80
26707;DHT22;14319;49.422;10.934;2022-12-26T10:05:12;11.20;85.00
26707;DHT22;14319;49.422;10.934;2022-12-26T10:07:16;11.20;84.60
26707;DHT22;14319;49.422;10.934;2022-12-26T10:09:29;11.10;84.40
26707;DHT22;14319;49.422;10.934;2022-12-26T10:11:52;11.20;85.00
26707;DHT22;14319;49.422;10.934;2022-12-26T10:13:56;11.10;85.50
26707;DHT22;14319;49.422;10.934;2022-12-26T10:16:02;10.90;85.60
26707;DHT22;14319;49.422;10.934;2022-12-26T10:24:22;10.50;91.10
26707;DHT22;14319;49.422;10.934;2022-12-26T10:26:28;10.50;92.70
26707;DHT22;14319;49.422;10.934;2022-12-26T10:28:35;10.40;92.00
26707;DHT22;14319;49.422;10.934;2022-12-26T10:30:40;10.40;94.00
26707;DHT22;14319;49.422;10.934;2022-12-26T10:32:45;10.40;93.20
26707;DHT22;14319;49.422;10.934;2022-12-26T10:34:48;10.30;93.60
26707;DHT22;14319;49.422;10.934;2022-12-26T10:36:49;10.40;94.00
26707;DHT22;14319;49.422;10.934;2022-12-26T10:38:51;10.50;93.60
26707;DHT22;14319;49.422;10.934;2022-12-26T10:40:52;10.60;93.40
26707;DHT22;14319;49.422;10.934;2022-12-26T10:42:59;10.50;93.40
26707;DHT22;14319;49.422;10.934;2022-12-26T10:45:06;10.50;94.00
26707;DHT22;14319;49.422;10.934;2022-12-26T10:49:15;10.30;95.30
26707;DHT22;14319;49.422;10.934;2022-12-26T10:51:16;10.30;95.80
26707;DHT22;14319;49.422;10.934;2022-12-26T10:53:17;10.20;95.90
26707;DHT22;14319;49.422;10.934;2022-12-26T10:55:19;10.20;96.10
26707;DHT22;14319;49.422;10.934;2022-12-26T10:57:20;10.30;96.00
26707;DHT22;14319;49.422;10.934;2022-12-26T10:59:26;10.20;96.10
26707;DHT22;14319;49.422;10.934;2022-12-26T11:03:29;10.20;95.90
26707;DHT22;14319;49.422;10.934;2022-12-26T11:05:29;10.20;96.20
26707;DHT22;14319;49.422;10.934;2022-12-26T11:07:32;10.20;97.20
26707;DHT22;14319;49.422;10.934;2022-12-26T11:09:34;10.20;96.70
26707;DHT22;14319;49.422;10.934;2022-12-26T11:11:37;10.20;95.80
26707;DHT22;14319;49.422;10.934;2022-12-26T11:13:49;10.20;96.40
26707;DHT22;14319;49.422;10.934;2022-12-26T11:15:51;10.00;97.00
26707;DHT22;14319;49.422;10.934;2022-12-26T11:17:52;10.00;97.40
26707;DHT22;14319;49.422;10.934;2022-12-26T11:22:25;10.00;97.00
26707;DHT22;14319;49.422;10.934;2022-12-26T11:24:26;10.00;96.80
26707;DHT22;14319;49.422;10.934;2022-12-26T11:26:27;10.00;96.80
26707;DHT22;14319;49.422;10.934;2022-12-26T11:28:32;9.90;97.50
26707;DHT22;14319;49.422;10.934;2022-12-26T11:30:33;10.00;97.50
26707;DHT22;14319;49.422;10.934;2022-12-26T11:32:39;10.00;97.50
26707;DHT22;14319;49.422;10.934;2022-12-26T11:34:40;10.00;96.90
26707;DHT22;14319;49.422;10.934;2022-12-26T11:36:46;10.00;97.00
26707;DHT22;14319;49.422;10.934;2022-12-26T11:40:56;10.00;97.50
26707;DHT22;14319;49.422;10.934;2022-12-26T11:43:15;10.00;96.90
26707;DHT22;14319;49.422;10.934;2022-12-26T11:45:25;10.00;96.80
26707;DHT22;14319;49.422;10.934;2022-12-26T11:47:27;10.20;96.70
26707;DHT22;14319;49.422;10.934;2022-12-26T11:49:33;10.10;96.30
26707;DHT22;14319;49.422;10.934;2022-12-26T11:51:37;10.10;96.40
26707;DHT22;14319;49.422;10.934;2022-12-26T11:53:38;10.10;96.60
26707;DHT22;14319;49.422;10.934;2022-12-26T11:55:38;10.00;96.70
26707;DHT22;14319;49.422;10.934;2022-12-26T11:57:39;10.00;96.80
26707;DHT22;14319;49.422;10.934;2022-12-26T11:59:41;10.00;96.80
26707;DHT22;14319;49.422;10.934;2022-12-26T12:01:41;10.00;96.80
26707;DHT22;14319;49.422;10.934;2022-12-26T12:03:48;10.00;96.80
26707;DHT22;14319;49.422;10.934;2022-12-26T12:05:53;10.00;96.20
26707;DHT22;14319;49.422;10.934;2022-12-26T12:08:02;10.00;96.80
26707;DHT22;14319;49.422;10.934;2022-12-26T12:10:27;10.00;96.60
26707;DHT22;14319;49.422;10.934;2022-12-26T12:12:42;10.10;96.60
26707;DHT22;14319;49.422;10.934;2022-12-26T12:19:37;10.10;96.40
26707;DHT22;14319;49.422;10.934;2022-12-26T12:21:45;10.10;95.50
26707;DHT22;14319;49.422;10.934;2022-12-26T12:26:16;10.10;95.70
26707;DHT22;14319;49.422;10.934;2022-12-26T12:28:23;10.20;95.60
26707;DHT22;14319;49.422;10.934;2022-12-26T12:41:14;9.90;95.00
26707;DHT22;14319;49.422;10.934;2022-12-26T12:45:39;10.00;95.10
26707;DHT22;14319;49.422;10.934;2022-12-26T12:52:19;10.20;94.80
26707;DHT22;14319;49.422;10.934;2022-12-26T13:00:41;10.30;93.30
26707;DHT22;14319;49.422;10.934;2022-12-26T13:04:44;10.40;92.70
26707;DHT22;14319;49.422;10.934;2022-12-26T13:06:51;10.40;92.30
26707;DHT22;14319;49.422;10.934;2022-12-26T13:09:00;10.30;92.30
26707;DHT22;14319;49.422;10.934;2022-12-26T13:11:03;10.20;92.40
26707;DHT22;14319;49.422;10.934;2022-12-26T13:13:12;10.20;92.70
26707;DHT22;14319;49.422;10.934;2022-12-26T13:15:33;10.20;92.50
26707;DHT22;14319;49.422;10.934;2022-12-26T13:17:40;10.10;92.70
26707;DHT22;14319;49.422;10.934;2022-12-26T13:19:44;10.00;93.30
26707;DHT22;14319;49.422;10.934;2022-12-26T13:21:46;10.20;93.60
26707;DHT22;14319;49.422;10.934;2022-12-26T13:23:55;10.20;92.50
26707;DHT22;14319;49.422;10.934;2022-12-26T13:26:17;10.20;93.00
26707;DHT22;14319;49.422;10.934;2022-12-26T13:28:21;10.20;92.10
26707;DHT22;14319;49.422;10.934;2022-12-26T13:30:23;10.20;92.20
26707;DHT22;14319;49.422;10.934;2022-12-26T13:34:24;10.10;93.00
26707;DHT22;14319;49.422;10.934;2022-12-26T13:36:34;10.00;92.80
26707;DHT22;14319;49.422;10.934;2022-12-26T13:40:55;10.10;92.60
26707;DHT22;14319;49.422;10.934;2022-12-26T13:43:20;10.20;92.40
26707;DHT22;14319;49.422;10.934;2022-12-26T13:47:41;10.20;92.20
26707;DHT22;14319;49.422;10.934;2022-12-26T13:49:41;10.30;92.00
26707;DHT22;14319;49.422;10.934;2022-12-26T13:51:43;10.20;91.50
26707;DHT22;14319;49.422;10.934;2022-12-26T13:53:44;10.20;91.70
26707;DHT22;14319;49.422;10.934;2022-12-26T13:55:56;10.10;92.50
26707;DHT22;14319;49.422;10.934;2022-12-26T13:58:05;10.10;92.40
26707;DHT22;14319;49.422;10.934;2022-12-26T14:02:25;10.20;92.30
26707;DHT22;14319;49.422;10.934;2022-12-26T14:04:44;10.10;93.10
26707;DHT22;14319;49.422;10.934;2022-12-26T14:11:05;10.20;92.50
26707;DHT22;14319;49.422;10.934;2022-12-26T14:16:13;10.10;92.40
26707;DHT22;14319;49.422;10.934;2022-12-26T14:22:24;10.10;92.10
26707;DHT22;14319;49.422;10.934;2022-12-26T14:35:43;10.10;92.00
26707;DHT22;14319;49.422;10.934;2022-12-26T14:37:41;10.20;92.50
26707;DHT22;14319;49.422;10.934;2022-12-26T14:42:09;10.10;92.00
26707;DHT22;14319;49.422;10.934;2022-12-26T14:48:38;10.10;93.50
26707;DHT22;14319;49.422;10.934;2022-12-26T14:50:43;10.10;93.50
26707;DHT22;14319;49.422;10.934;2022-12-26T14:52:44;10.20;94.30
26707;DHT22;14319;49.422;10.934;2022-12-26T14:54:45;10.10;92.90
26707;DHT22;14319;49.422;10.934;2022-12-26T14:56:46;10.20;93.20
26707;DHT22;14319;49.422;10.934;2022-12-26T14:58:47;10.20;92.50
26707;DHT22;14319;49.422;10.934;2022-12-26T15:00:48;10.20;92.60
26707;DHT22;14319;49.422;10.934;2022-12-26T15:04:58;10.20;92.50
26707;DHT22;14319;49.422;10.934;2022-12-26T15:07:12;10.20;92.90
26707;DHT22;14319;49.422;10.934;2022-12-26T15:21:49;10.10;92.40
26707;DHT22;14319;49.422;10.934;2022-12-26T15:30:40;10.20;92.30